sensor_id;sensor_type;location;lat;lon;timestamp;temperature;humidity
5011;DHT22;2524;54.364;10.072;2023-02-28T00:01:09;5.10;99.90
5011;DHT22;2524;54.364;10.072;2023-02-28T00:03:35;5.10;99.90
5011;DHT22;2524;54.364;10.072;2023-02-28T00:06:04;5.10;99.90
5011;DHT22;2524;54.364;10.072;2023-02-28T00:08:31;5.10;99.90
5011;DHT22;2524;54.364;10.072;2023-02-28T00:11:01;5.10;99.90
5011;DHT22;2524;54.364;10.072;2023-02-28T00:13:27;5.10;99.90
5011;DHT22;2524;54.364;10.072;2023-02-28T00:16:04;5.10;99.90
5011;DHT22;2524;54.364;10.072;2023-02-28T00:18:30;5.20;99.90
5011;DHT22;2524;54.364;10.072;2023-02-28T00:20:56;5.20;99.90
5011;DHT22;2524;54.364;10.072;2023-02-28T00:23:21;5.20;99.90
5011;DHT22;2524;54.364;10.072;2023-02-28T00:25:47;5.20;99.90
5011;DHT22;2524;54.364;10.072;2023-02-28T00:28:12;5.20;99.90
5011;DHT22;2524;54.364;10.072;2023-02-28T00:30:38;5.20;99.90
5011;DHT22;2524;54.364;10.072;2023-02-28T00:33:04;5.20;99.90
5011;DHT22;2524;54.364;10.072;2023-02-28T00:35:29;5.10;99.90
5011;DHT22;2524;54.364;10.072;2023-02-28T00:37:55;5.10;99.90
5011;DHT22;2524;54.364;10.072;2023-02-28T00:40:21;5.10;99.90
5011;DHT22;2524;54.364;10.072;2023-02-28T00:42:46;5.10;99.90
5011;DHT22;2524;54.364;10.072;2023-02-28T00:45:12;5.00;99.90
5011;DHT22;2524;54.364;10.072;2023-02-28T00:47:37;5.10;99.90
5011;DHT22;2524;54.364;10.072;2023-02-28T00:50:04;5.10;99.90
5011;DHT22;2524;54.364;10.072;2023-02-28T00:52:30;5.10;99.90
5011;DHT22;2524;54.364;10.072;2023-02-28T00:54:55;5.10;99.90
5011;DHT22;2524;54.364;10.072;2023-02-28T00:57:21;5.10;99.90
5011;DHT22;2524;54.364;10.072;2023-02-28T00:59:46;5.00;99.90
5011;DHT22;2524;54.364;10.072;2023-02-28T01:02:12;5.10;99.90
5011;DHT22;2524;54.364;10.072;2023-02-28T01:04:37;5.10;99.90
5011;DHT22;2524;54.364;10.072;2023-02-28T01:07:03;5.10;99.90
5011;DHT22;2524;54.364;10.072;2023-02-28T01:09:29;5.10;99.90
5011;DHT22;2524;54.364;10.072;2023-02-28T01:11:54;5.10;99.90
5011;DHT22;2524;54.364;10.072;2023-02-28T01:14:20;5.10;99.90
5011;DHT22;2524;54.364;10.072;2023-02-28T01:16:45;5.10;99.90
5011;DHT22;2524;54.364;10.072;2023-02-28T01:19:11;5.10;99.90
5011;DHT22;2524;54.364;10.072;2023-02-28T01:21:37;5.10;99.90
5011;DHT22;2524;54.364;10.072;2023-02-28T01:24:04;5.10;99.90
5011;DHT22;2524;54.364;10.072;2023-02-28T01:26:30;5.10;99.90
5011;DHT22;2524;54.364;10.072;2023-02-28T01:28:56;5.10;99.90
5011;DHT22;2524;54.364;10.072;2023-02-28T01:31:22;5.10;99.90
5011;DHT22;2524;54.364;10.072;2023-02-28T01:33:48;5.10;99.90
5011;DHT22;2524;54.364;10.072;2023-02-28T01:36:20;5.10;99.90
5011;DHT22;2524;54.364;10.072;2023-02-28T01:38:47;5.10;99.90
5011;DHT22;2524;54.364;10.072;2023-02-28T01:41:34;5.10;99.90
5011;DHT22;2524;54.364;10.072;2023-02-28T01:46:32;5.10;99.90
5011;DHT22;2524;54.364;10.072;2023-02-28T01:49:08;5.00;99.90
5011;DHT22;2524;54.364;10.072;2023-02-28T01:51:44;5.00;99.90
5011;DHT22;2524;54.364;10.072;2023-02-28T01:54:14;5.00;99.90
5011;DHT22;2524;54.364;10.072;2023-02-28T01:56:46;5.00;99.90
5011;DHT22;2524;54.364;10.072;2023-02-28T01:59:17;5.00;99.90
5011;DHT22;2524;54.364;10.072;2023-02-28T02:01:46;5.00;99.90
5011;DHT22;2524;54.364;10.072;2023-02-28T02:04:12;5.00;99.90
5011;DHT22;2524;54.364;10.072;2023-02-28T02:06:42;5.10;99.90
5011;DHT22;2524;54.364;10.072;2023-02-28T02:09:08;5.00;99.90
5011;DHT22;2524;54.364;10.072;2023-02-28T02:11:34;5.00;99.90
5011;DHT22;2524;54.364;10.072;2023-02-28T02:17:14;5.00;99.90
5011;DHT22;2524;54.364;10.072;2023-02-28T02:25:52;5.00;99.90
5011;DHT22;2524;54.364;10.072;2023-02-28T02:39:10;5.00;99.90
5011;DHT22;2524;54.364;10.072;2023-02-28T02:41:53;5.00;99.90
5011;DHT22;2524;54.364;10.072;2023-02-28T02:44:24;4.90;99.90
5011;DHT22;2524;54.364;10.072;2023-02-28T02:46:54;4.90;99.90
5011;DHT22;2524;54.364;10.072;2023-02-28T02:49:27;4.90;99.90
5011;DHT22;2524;54.364;10.072;2023-02-28T02:51:55;4.90;99.90
5011;DHT22;2524;54.364;10.072;2023-02-28T02:54:25;4.90;99.90
5011;DHT22;2524;54.364;10.072;2023-02-28T02:56:59;4.80;99.90
5011;DHT22;2524;54.364;10.072;2023-02-28T02:59:28;4.80;99.90
5011;DHT22;2524;54.364;10.072;2023-02-28T03:02:00;4.80;99.90
5011;DHT22;2524;54.364;10.072;2023-02-28T03:04:30;4.80;99.90
5011;DHT22;2524;54.364;10.072;2023-02-28T03:06:56;4.80;99.90
5011;DHT22;2524;54.364;10.072;2023-02-28T03:09:23;4.70;99.90
5011;DHT22;2524;54.364;10.072;2023-02-28T03:11:49;4.70;99.90
5011;DHT22;2524;54.364;10.072;2023-02-28T03:17:25;4.80;99.90
5011;DHT22;2524;54.364;10.072;2023-02-28T03:23:05;4.70;99.90
5011;DHT22;2524;54.364;10.072;2023-02-28T03:25:57;4.70;99.90
5011;DHT22;2524;54.364;10.072;2023-02-28T03:31:26;4.60;99.90
5011;DHT22;2524;54.364;10.072;2023-02-28T03:34:26;4.60;99.90
5011;DHT22;2524;54.364;10.072;2023-02-28T03:36:56;4.60;99.90
5011;DHT22;2524;54.364;10.072;2023-02-28T03:39:28;4.60;99.90
5011;DHT22;2524;54.364;10.072;2023-02-28T03:41:59;4.50;99.90
5011;DHT22;2524;54.364;10.072;2023-02-28T03:44:32;4.50;99.90
5011;DHT22;2524;54.364;10.072;2023-02-28T03:47:04;4.40;99.90
5011;DHT22;2524;54.364;10.072;2023-02-28T03:49:57;4.40;99.90
5011;DHT22;2524;54.364;10.072;2023-02-28T03:52:25;4.30;99.90
5011;DHT22;2524;54.364;10.072;2023-02-28T03:54:54;4.40;99.90
5011;DHT22;2524;54.364;10.072;2023-02-28T04:00:03;4.20;99.90
5011;DHT22;2524;54.364;10.072;2023-02-28T04:02:31;4.20;99.90
5011;DHT22;2524;54.364;10.072;2023-02-28T04:04:57;4.20;99.90
5011;DHT22;2524;54.364;10.072;2023-02-28T04:07:22;4.20;99.90
5011;DHT22;2524;54.364;10.072;2023-02-28T04:09:48;4.20;99.90
5011;DHT22;2524;54.364;10.072;2023-02-28T04:12:14;4.20;99.90
5011;DHT22;2524;54.364;10.072;2023-02-28T04:14:41;4.10;99.90
5011;DHT22;2524;54.364;10.072;2023-02-28T04:17:06;4.10;99.90
5011;DHT22;2524;54.364;10.072;2023-02-28T04:19:32;4.10;99.90
5011;DHT22;2524;54.364;10.072;2023-02-28T04:21:58;4.10;99.90
5011;DHT22;2524;54.364;10.072;2023-02-28T04:24:27;4.00;99.90
5011;DHT22;2524;54.364;10.072;2023-02-28T04:26:55;4.00;99.90
5011;DHT22;2524;54.364;10.072;2023-02-28T04:29:29;3.90;99.90
5011;DHT22;2524;54.364;10.072;2023-02-28T04:31:56;3.90;99.90
5011;DHT22;2524;54.364;10.072;2023-02-28T04:34:23;3.90;99.90
5011;DHT22;2524;54.364;10.072;2023-02-28T04:36:49;3.90;99.90
5011;DHT22;2524;54.364;10.072;2023-02-28T04:39:16;3.80;99.90
5011;DHT22;2524;54.364;10.072;2023-02-28T04:41:44;3.80;99.90
5011;DHT22;2524;54.364;10.072;2023-02-28T04:44:09;3.80;99.90
5011;DHT22;2524;54.364;10.072;2023-02-28T04:46:35;3.80;99.90
5011;DHT22;2524;54.364;10.072;2023-02-28T04:49:01;3.70;99.90
5011;DHT22;2524;54.364;10.072;2023-02-28T04:51:26;3.70;99.90
5011;DHT22;2524;54.364;10.072;2023-02-28T04:53:52;3.70;99.90
5011;DHT22;2524;54.364;10.072;2023-02-28T04:56:18;3.70;99.90
5011;DHT22;2524;54.364;10.072;2023-02-28T04:58:44;3.70;99.90
5011;DHT22;2524;54.364;10.072;2023-02-28T05:01:31;3.60;99.90
5011;DHT22;2524;54.364;10.072;2023-02-28T05:03:59;3.60;99.90
5011;DHT22;2524;54.364;10.072;2023-02-28T05:06:27;3.60;99.90
5011;DHT22;2524;54.364;10.072;2023-02-28T05:08:53;3.60;99.90
5011;DHT22;2524;54.364;10.072;2023-02-28T05:11:20;3.50;99.90
5011;DHT22;2524;54.364;10.072;2023-02-28T05:13:46;3.50;99.90
5011;DHT22;2524;54.364;10.072;2023-02-28T05:16:12;3.50;99.90
5011;DHT22;2524;54.364;10.072;2023-02-28T05:18:38;3.40;99.90
5011;DHT22;2524;54.364;10.072;2023-02-28T05:21:05;3.40;99.90
5011;DHT22;2524;54.364;10.072;2023-02-28T05:23:31;3.40;99.90
5011;DHT22;2524;54.364;10.072;2023-02-28T05:25:56;3.40;99.90
5011;DHT22;2524;54.364;10.072;2023-02-28T05:28:22;3.40;99.90
5011;DHT22;2524;54.364;10.072;2023-02-28T05:30:47;3.40;99.90
5011;DHT22;2524;54.364;10.072;2023-02-28T05:33:13;3.30;99.90
5011;DHT22;2524;54.364;10.072;2023-02-28T05:35:40;3.30;99.90
5011;DHT22;2524;54.364;10.072;2023-02-28T05:38:07;3.30;99.90
5011;DHT22;2524;54.364;10.072;2023-02-28T05:40:33;3.30;99.90
5011;DHT22;2524;54.364;10.072;2023-02-28T05:42:58;3.00;99.90
5011;DHT22;2524;54.364;10.072;2023-02-28T05:45:24;3.00;99.90
5011;DHT22;2524;54.364;10.072;2023-02-28T05:47:53;2.90;99.90
5011;DHT22;2524;54.364;10.072;2023-02-28T05:50:19;2.90;99.90
5011;DHT22;2524;54.364;10.072;2023-02-28T05:52:48;2.80;99.90
5011;DHT22;2524;54.364;10.072;2023-02-28T05:55:14;2.80;99.90
5011;DHT22;2524;54.364;10.072;2023-02-28T05:57:39;2.80;99.90
5011;DHT22;2524;54.364;10.072;2023-02-28T06:00:05;2.80;99.90
5011;DHT22;2524;54.364;10.072;2023-02-28T06:02:31;2.80;99.90
5011;DHT22;2524;54.364;10.072;2023-02-28T06:04:57;2.80;99.90
5011;DHT22;2524;54.364;10.072;2023-02-28T06:07:22;2.80;99.90
5011;DHT22;2524;54.364;10.072;2023-02-28T06:09:48;2.80;99.90
5011;DHT22;2524;54.364;10.072;2023-02-28T06:12:13;2.90;99.90
5011;DHT22;2524;54.364;10.072;2023-02-28T06:14:40;2.80;99.90
5011;DHT22;2524;54.364;10.072;2023-02-28T06:17:06;2.80;99.90
5011;DHT22;2524;54.364;10.072;2023-02-28T06:19:31;2.80;99.90
5011;DHT22;2524;54.364;10.072;2023-02-28T06:21:57;2.80;99.90
5011;DHT22;2524;54.364;10.072;2023-02-28T06:24:24;2.70;99.90
5011;DHT22;2524;54.364;10.072;2023-02-28T06:26:53;2.70;99.90
5011;DHT22;2524;54.364;10.072;2023-02-28T06:29:18;2.80;99.90
5011;DHT22;2524;54.364;10.072;2023-02-28T06:31:45;2.70;99.90
5011;DHT22;2524;54.364;10.072;2023-02-28T06:34:12;2.70;99.90
5011;DHT22;2524;54.364;10.072;2023-02-28T06:36:38;2.70;99.90
5011;DHT22;2524;54.364;10.072;2023-02-28T06:39:05;2.70;99.90
5011;DHT22;2524;54.364;10.072;2023-02-28T06:41:31;2.70;99.90
5011;DHT22;2524;54.364;10.072;2023-02-28T06:43:57;2.70;99.90
5011;DHT22;2524;54.364;10.072;2023-02-28T06:46:22;2.70;99.90
5011;DHT22;2524;54.364;10.072;2023-02-28T06:48:48;2.70;99.90
5011;DHT22;2524;54.364;10.072;2023-02-28T06:51:18;2.70;99.90
5011;DHT22;2524;54.364;10.072;2023-02-28T06:53:45;2.70;99.90
5011;DHT22;2524;54.364;10.072;2023-02-28T06:56:13;2.70;99.90
5011;DHT22;2524;54.364;10.072;2023-02-28T06:58:39;2.70;99.90
5011;DHT22;2524;54.364;10.072;2023-02-28T07:01:06;2.80;99.90
5011;DHT22;2524;54.364;10.072;2023-02-28T07:03:32;2.80;99.90
5011;DHT22;2524;54.364;10.072;2023-02-28T07:05:58;2.70;99.90
5011;DHT22;2524;54.364;10.072;2023-02-28T07:08:25;2.70;99.90
5011;DHT22;2524;54.364;10.072;2023-02-28T07:10:54;2.70;99.90
5011;DHT22;2524;54.364;10.072;2023-02-28T07:13:21;2.70;99.90
5011;DHT22;2524;54.364;10.072;2023-02-28T07:15:58;2.70;99.90
5011;DHT22;2524;54.364;10.072;2023-02-28T07:18:24;2.80;99.90
5011;DHT22;2524;54.364;10.072;2023-02-28T07:20:50;2.80;99.90
5011;DHT22;2524;54.364;10.072;2023-02-28T07:23:16;2.80;99.90
5011;DHT22;2524;54.364;10.072;2023-02-28T07:25:41;3.00;99.90
5011;DHT22;2524;54.364;10.072;2023-02-28T07:28:13;2.80;99.90
5011;DHT22;2524;54.364;10.072;2023-02-28T07:30:39;2.80;99.90
5011;DHT22;2524;54.364;10.072;2023-02-28T07:33:05;2.90;99.90
5011;DHT22;2524;54.364;10.072;2023-02-28T07:35:31;2.90;99.90
5011;DHT22;2524;54.364;10.072;2023-02-28T07:38:00;2.90;99.90
5011;DHT22;2524;54.364;10.072;2023-02-28T07:40:26;2.90;99.90
5011;DHT22;2524;54.364;10.072;2023-02-28T07:42:52;2.90;99.90
5011;DHT22;2524;54.364;10.072;2023-02-28T07:45:18;3.00;99.90
5011;DHT22;2524;54.364;10.072;2023-02-28T07:47:44;3.00;99.90
5011;DHT22;2524;54.364;10.072;2023-02-28T07:50:12;3.10;99.90
5011;DHT22;2524;54.364;10.072;2023-02-28T07:52:38;3.10;99.90
5011;DHT22;2524;54.364;10.072;2023-02-28T07:55:05;3.20;99.90
5011;DHT22;2524;54.364;10.072;2023-02-28T07:57:31;3.20;99.90
5011;DHT22;2524;54.364;10.072;2023-02-28T07:59:57;3.30;99.90
5011;DHT22;2524;54.364;10.072;2023-02-28T08:02:23;3.30;99.90
5011;DHT22;2524;54.364;10.072;2023-02-28T08:04:48;3.30;99.90
5011;DHT22;2524;54.364;10.072;2023-02-28T08:07:15;3.40;99.90
5011;DHT22;2524;54.364;10.072;2023-02-28T08:09:41;3.40;99.90
5011;DHT22;2524;54.364;10.072;2023-02-28T08:12:08;3.50;99.90
5011;DHT22;2524;54.364;10.072;2023-02-28T08:14:34;3.50;99.90
5011;DHT22;2524;54.364;10.072;2023-02-28T08:17:00;3.50;99.90
5011;DHT22;2524;54.364;10.072;2023-02-28T08:19:26;3.60;99.90
5011;DHT22;2524;54.364;10.072;2023-02-28T08:21:52;3.60;99.90
5011;DHT22;2524;54.364;10.072;2023-02-28T08:24:18;3.70;99.90
5011;DHT22;2524;54.364;10.072;2023-02-28T08:26:43;3.70;99.90
5011;DHT22;2524;54.364;10.072;2023-02-28T08:29:09;3.70;99.90
5011;DHT22;2524;54.364;10.072;2023-02-28T08:31:35;3.80;99.90
5011;DHT22;2524;54.364;10.072;2023-02-28T08:34:08;3.90;99.90
5011;DHT22;2524;54.364;10.072;2023-02-28T08:36:34;3.90;99.90
5011;DHT22;2524;54.364;10.072;2023-02-28T08:39:00;3.90;99.90
5011;DHT22;2524;54.364;10.072;2023-02-28T08:41:26;4.00;99.90
5011;DHT22;2524;54.364;10.072;2023-02-28T08:43:52;4.00;99.90
5011;DHT22;2524;54.364;10.072;2023-02-28T08:46:19;4.10;99.90
5011;DHT22;2524;54.364;10.072;2023-02-28T08:48:44;4.10;99.90
5011;DHT22;2524;54.364;10.072;2023-02-28T08:51:13;4.20;99.90
5011;DHT22;2524;54.364;10.072;2023-02-28T08:53:39;4.30;99.90
5011;DHT22;2524;54.364;10.072;2023-02-28T08:58:31;4.40;99.90
5011;DHT22;2524;54.364;10.072;2023-02-28T09:00:57;4.50;99.90
5011;DHT22;2524;54.364;10.072;2023-02-28T09:03:23;4.60;99.90
5011;DHT22;2524;54.364;10.072;2023-02-28T09:05:57;4.60;99.90
5011;DHT22;2524;54.364;10.072;2023-02-28T09:08:28;4.70;99.90
5011;DHT22;2524;54.364;10.072;2023-02-28T09:10:54;4.80;99.90
5011;DHT22;2524;54.364;10.072;2023-02-28T09:13:22;4.80;99.90
5011;DHT22;2524;54.364;10.072;2023-02-28T09:15:47;4.90;99.90
5011;DHT22;2524;54.364;10.072;2023-02-28T09:18:13;5.00;99.90
5011;DHT22;2524;54.364;10.072;2023-02-28T09:20:40;5.00;99.90
5011;DHT22;2524;54.364;10.072;2023-02-28T09:23:07;5.10;99.90
5011;DHT22;2524;54.364;10.072;2023-02-28T09:25:33;5.20;99.90
5011;DHT22;2524;54.364;10.072;2023-02-28T09:27:59;5.30;99.90
5011;DHT22;2524;54.364;10.072;2023-02-28T09:30:25;5.50;99.90
5011;DHT22;2524;54.364;10.072;2023-02-28T09:32:51;5.60;99.90
5011;DHT22;2524;54.364;10.072;2023-02-28T09:35:26;5.60;99.90
5011;DHT22;2524;54.364;10.072;2023-02-28T09:37:52;5.70;99.90
5011;DHT22;2524;54.364;10.072;2023-02-28T09:40:20;5.80;99.90
5011;DHT22;2524;54.364;10.072;2023-02-28T09:42:49;5.80;99.90
5011;DHT22;2524;54.364;10.072;2023-02-28T09:47:53;6.00;99.90
5011;DHT22;2524;54.364;10.072;2023-02-28T09:52:51;6.30;99.90
5011;DHT22;2524;54.364;10.072;2023-02-28T09:55:40;6.40;99.90
5011;DHT22;2524;54.364;10.072;2023-02-28T09:58:39;6.50;99.90
5011;DHT22;2524;54.364;10.072;2023-02-28T10:03:39;6.70;99.90
5011;DHT22;2524;54.364;10.072;2023-02-28T10:06:12;6.80;99.90
5011;DHT22;2524;54.364;10.072;2023-02-28T10:08:55;6.90;99.90
5011;DHT22;2524;54.364;10.072;2023-02-28T10:11:23;6.90;99.90
5011;DHT22;2524;54.364;10.072;2023-02-28T10:16:43;7.10;99.90
5011;DHT22;2524;54.364;10.072;2023-02-28T10:19:30;7.20;99.90
5011;DHT22;2524;54.364;10.072;2023-02-28T10:24:48;7.30;99.90
5011;DHT22;2524;54.364;10.072;2023-02-28T10:27:21;7.40;99.90
5011;DHT22;2524;54.364;10.072;2023-02-28T10:29:57;7.40;99.90
5011;DHT22;2524;54.364;10.072;2023-02-28T10:32:30;7.50;99.90
5011;DHT22;2524;54.364;10.072;2023-02-28T10:37:37;7.70;99.90
5011;DHT22;2524;54.364;10.072;2023-02-28T10:42:55;7.80;99.90
5011;DHT22;2524;54.364;10.072;2023-02-28T10:45:21;8.00;99.90
5011;DHT22;2524;54.364;10.072;2023-02-28T10:47:54;7.90;99.90
5011;DHT22;2524;54.364;10.072;2023-02-28T10:50:29;8.00;99.90
5011;DHT22;2524;54.364;10.072;2023-02-28T11:01:19;8.10;99.90
5011;DHT22;2524;54.364;10.072;2023-02-28T11:03:45;8.20;99.90
5011;DHT22;2524;54.364;10.072;2023-02-28T11:06:25;8.30;99.90
5011;DHT22;2524;54.364;10.072;2023-02-28T11:08:59;8.30;99.90
5011;DHT22;2524;54.364;10.072;2023-02-28T11:11:27;8.40;99.90
5011;DHT22;2524;54.364;10.072;2023-02-28T11:13:56;8.40;99.90
5011;DHT22;2524;54.364;10.072;2023-02-28T11:16:35;8.40;99.90
5011;DHT22;2524;54.364;10.072;2023-02-28T11:19:04;8.50;99.90
5011;DHT22;2524;54.364;10.072;2023-02-28T11:21:36;8.60;99.90
5011;DHT22;2524;54.364;10.072;2023-02-28T11:24:12;8.60;99.90
5011;DHT22;2524;54.364;10.072;2023-02-28T11:26:47;8.70;99.90
5011;DHT22;2524;54.364;10.072;2023-02-28T11:29:22;8.70;99.90
5011;DHT22;2524;54.364;10.072;2023-02-28T11:34:36;8.90;99.90
5011;DHT22;2524;54.364;10.072;2023-02-28T11:37:03;8.90;99.90
5011;DHT22;2524;54.364;10.072;2023-02-28T11:39:33;9.00;99.90
5011;DHT22;2524;54.364;10.072;2023-02-28T11:42:05;9.00;99.90
5011;DHT22;2524;54.364;10.072;2023-02-28T11:44:57;9.10;99.90
5011;DHT22;2524;54.364;10.072;2023-02-28T11:50:16;9.10;99.90
5011;DHT22;2524;54.364;10.072;2023-02-28T11:52:59;9.10;99.90
5011;DHT22;2524;54.364;10.072;2023-02-28T11:55:51;9.10;99.90
5011;DHT22;2524;54.364;10.072;2023-02-28T12:07:22;9.20;99.90
5011;DHT22;2524;54.364;10.072;2023-02-28T12:15:36;9.40;99.90
5011;DHT22;2524;54.364;10.072;2023-02-28T12:18:16;9.50;99.90
5011;DHT22;2524;54.364;10.072;2023-02-28T12:21:01;9.50;99.90
5011;DHT22;2524;54.364;10.072;2023-02-28T12:26:39;9.50;99.90
5011;DHT22;2524;54.364;10.072;2023-02-28T12:29:31;9.50;99.90
5011;DHT22;2524;54.364;10.072;2023-02-28T12:32:21;9.50;99.90
5011;DHT22;2524;54.364;10.072;2023-02-28T12:35:04;9.60;99.90
5011;DHT22;2524;54.364;10.072;2023-02-28T12:37:47;9.80;99.90
5011;DHT22;2524;54.364;10.072;2023-02-28T12:40:21;9.90;99.90
5011;DHT22;2524;54.364;10.072;2023-02-28T12:43:07;10.00;99.90
5011;DHT22;2524;54.364;10.072;2023-02-28T12:45:41;10.10;99.90
5011;DHT22;2524;54.364;10.072;2023-02-28T12:48:13;10.00;99.90
5011;DHT22;2524;54.364;10.072;2023-02-28T12:50:40;10.10;99.90
5011;DHT22;2524;54.364;10.072;2023-02-28T12:53:06;10.10;99.90
5011;DHT22;2524;54.364;10.072;2023-02-28T12:58:20;10.10;99.30
5011;DHT22;2524;54.364;10.072;2023-02-28T13:01:22;10.10;99.90
5011;DHT22;2524;54.364;10.072;2023-02-28T13:09:54;10.10;99.90
5011;DHT22;2524;54.364;10.072;2023-02-28T13:12:21;10.10;99.90
5011;DHT22;2524;54.364;10.072;2023-02-28T13:14:48;10.10;99.90
5011;DHT22;2524;54.364;10.072;2023-02-28T13:17:23;10.20;99.90
5011;DHT22;2524;54.364;10.072;2023-02-28T13:24:57;10.40;99.90
5011;DHT22;2524;54.364;10.072;2023-02-28T13:27:24;10.40;99.90
5011;DHT22;2524;54.364;10.072;2023-02-28T13:29:56;10.40;99.90
5011;DHT22;2524;54.364;10.072;2023-02-28T13:42:36;10.80;98.10
5011;DHT22;2524;54.364;10.072;2023-02-28T13:47:42;10.80;99.10
5011;DHT22;2524;54.364;10.072;2023-02-28T13:53:01;10.90;98.00
5011;DHT22;2524;54.364;10.072;2023-02-28T13:58:54;10.70;96.30
5011;DHT22;2524;54.364;10.072;2023-02-28T14:04:12;10.70;96.60
5011;DHT22;2524;54.364;10.072;2023-02-28T14:06:48;10.60;97.50
5011;DHT22;2524;54.364;10.072;2023-02-28T14:09:33;10.50;97.00
5011;DHT22;2524;54.364;10.072;2023-02-28T14:15:03;10.40;96.50
5011;DHT22;2524;54.364;10.072;2023-02-28T14:17:31;10.30;96.30
5011;DHT22;2524;54.364;10.072;2023-02-28T14:19:57;10.30;96.60
5011;DHT22;2524;54.364;10.072;2023-02-28T14:22:54;10.30;96.60
5011;DHT22;2524;54.364;10.072;2023-02-28T14:31:06;10.20;96.40
5011;DHT22;2524;54.364;10.072;2023-02-28T14:33:59;10.30;95.70
5011;DHT22;2524;54.364;10.072;2023-02-28T14:36:35;10.30;95.50
5011;DHT22;2524;54.364;10.072;2023-02-28T14:39:06;10.30;95.90
5011;DHT22;2524;54.364;10.072;2023-02-28T14:41:37;10.30;96.20
5011;DHT22;2524;54.364;10.072;2023-02-28T14:44:20;10.30;96.20
5011;DHT22;2524;54.364;10.072;2023-02-28T14:46:59;10.40;96.20
5011;DHT22;2524;54.364;10.072;2023-02-28T14:49:32;10.50;96.40
5011;DHT22;2524;54.364;10.072;2023-02-28T14:52:07;10.70;96.70
5011;DHT22;2524;54.364;10.072;2023-02-28T14:54:37;10.90;96.90
5011;DHT22;2524;54.364;10.072;2023-02-28T14:57:04;11.20;96.90
5011;DHT22;2524;54.364;10.072;2023-02-28T14:59:35;11.40;96.90
5011;DHT22;2524;54.364;10.072;2023-02-28T15:04:40;11.90;96.60
5011;DHT22;2524;54.364;10.072;2023-02-28T15:07:13;11.70;96.10
5011;DHT22;2524;54.364;10.072;2023-02-28T15:09:39;11.80;95.80
5011;DHT22;2524;54.364;10.072;2023-02-28T15:12:05;12.00;95.70
5011;DHT22;2524;54.364;10.072;2023-02-28T15:14:31;12.00;95.50
5011;DHT22;2524;54.364;10.072;2023-02-28T15:17:01;12.20;95.30
5011;DHT22;2524;54.364;10.072;2023-02-28T15:19:33;12.40;95.20
5011;DHT22;2524;54.364;10.072;2023-02-28T15:22:04;12.70;94.40
5011;DHT22;2524;54.364;10.072;2023-02-28T15:24:32;12.80;94.10
5011;DHT22;2524;54.364;10.072;2023-02-28T15:27:05;13.00;93.80
5011;DHT22;2524;54.364;10.072;2023-02-28T15:29:41;13.10;93.60
5011;DHT22;2524;54.364;10.072;2023-02-28T15:32:30;13.40;93.00
5011;DHT22;2524;54.364;10.072;2023-02-28T15:34:57;13.40;92.10
5011;DHT22;2524;54.364;10.072;2023-02-28T15:37:38;13.60;91.80
5011;DHT22;2524;54.364;10.072;2023-02-28T15:40:22;13.60;91.40
5011;DHT22;2524;54.364;10.072;2023-02-28T15:43:27;13.70;91.30
5011;DHT22;2524;54.364;10.072;2023-02-28T15:46:09;13.70;90.70
5011;DHT22;2524;54.364;10.072;2023-02-28T15:48:42;13.80;90.50
5011;DHT22;2524;54.364;10.072;2023-02-28T15:53:57;13.90;90.00
5011;DHT22;2524;54.364;10.072;2023-02-28T15:56:32;13.90;87.30
5011;DHT22;2524;54.364;10.072;2023-02-28T15:59:02;13.80;87.50
5011;DHT22;2524;54.364;10.072;2023-02-28T16:01:30;13.70;86.20
5011;DHT22;2524;54.364;10.072;2023-02-28T16:04:00;13.70;85.30
5011;DHT22;2524;54.364;10.072;2023-02-28T16:06:37;13.50;84.70
5011;DHT22;2524;54.364;10.072;2023-02-28T16:09:04;13.30;84.00
5011;DHT22;2524;54.364;10.072;2023-02-28T16:11:33;13.00;81.90
5011;DHT22;2524;54.364;10.072;2023-02-28T16:14:00;12.70;81.00
5011;DHT22;2524;54.364;10.072;2023-02-28T16:16:26;12.50;80.80
5011;DHT22;2524;54.364;10.072;2023-02-28T16:18:52;12.20;81.00
5011;DHT22;2524;54.364;10.072;2023-02-28T16:21:18;12.00;81.60
5011;DHT22;2524;54.364;10.072;2023-02-28T16:23:44;11.70;80.90
5011;DHT22;2524;54.364;10.072;2023-02-28T16:26:20;11.60;81.00
5011;DHT22;2524;54.364;10.072;2023-02-28T16:28:46;11.30;80.40
5011;DHT22;2524;54.364;10.072;2023-02-28T16:31:12;11.30;80.50
5011;DHT22;2524;54.364;10.072;2023-02-28T16:33:45;10.90;80.40
5011;DHT22;2524;54.364;10.072;2023-02-28T16:36:17;10.80;80.80
5011;DHT22;2524;54.364;10.072;2023-02-28T16:38:43;10.70;80.80
5011;DHT22;2524;54.364;10.072;2023-02-28T16:41:14;10.50;80.90
5011;DHT22;2524;54.364;10.072;2023-02-28T16:43:45;10.40;81.00
5011;DHT22;2524;54.364;10.072;2023-02-28T16:46:12;10.30;81.30
5011;DHT22;2524;54.364;10.072;2023-02-28T16:48:38;10.20;81.40
5011;DHT22;2524;54.364;10.072;2023-02-28T16:51:07;10.10;81.50
5011;DHT22;2524;54.364;10.072;2023-02-28T16:53:33;10.00;81.90
5011;DHT22;2524;54.364;10.072;2023-02-28T16:56:00;9.90;83.20
5011;DHT22;2524;54.364;10.072;2023-02-28T16:58:28;9.80;83.30
5011;DHT22;2524;54.364;10.072;2023-02-28T17:00:54;9.80;83.70
5011;DHT22;2524;54.364;10.072;2023-02-28T17:03:25;9.70;83.90
5011;DHT22;2524;54.364;10.072;2023-02-28T17:05:51;9.60;84.00
5011;DHT22;2524;54.364;10.072;2023-02-28T17:08:17;9.50;84.40
5011;DHT22;2524;54.364;10.072;2023-02-28T17:10:43;9.40;84.70
5011;DHT22;2524;54.364;10.072;2023-02-28T17:13:08;9.30;84.70
5011;DHT22;2524;54.364;10.072;2023-02-28T17:15:34;9.30;85.10
5011;DHT22;2524;54.364;10.072;2023-02-28T17:18:01;9.20;85.40
5011;DHT22;2524;54.364;10.072;2023-02-28T17:20:26;9.10;85.40
5011;DHT22;2524;54.364;10.072;2023-02-28T17:22:55;9.00;85.20
5011;DHT22;2524;54.364;10.072;2023-02-28T17:25:22;8.90;85.70
5011;DHT22;2524;54.364;10.072;2023-02-28T17:27:48;8.90;86.00
5011;DHT22;2524;54.364;10.072;2023-02-28T17:30:22;8.80;86.50
5011;DHT22;2524;54.364;10.072;2023-02-28T17:32:48;8.80;86.70
5011;DHT22;2524;54.364;10.072;2023-02-28T17:35:14;8.70;86.90
5011;DHT22;2524;54.364;10.072;2023-02-28T17:37:41;8.70;87.50
5011;DHT22;2524;54.364;10.072;2023-02-28T17:40:12;8.60;87.80
5011;DHT22;2524;54.364;10.072;2023-02-28T17:42:38;8.60;88.10
5011;DHT22;2524;54.364;10.072;2023-02-28T17:45:04;8.50;88.50
5011;DHT22;2524;54.364;10.072;2023-02-28T17:47:29;8.50;88.90
5011;DHT22;2524;54.364;10.072;2023-02-28T17:49:55;8.40;88.50
5011;DHT22;2524;54.364;10.072;2023-02-28T17:52:20;8.40;89.10
5011;DHT22;2524;54.364;10.072;2023-02-28T17:54:47;8.30;89.80
5011;DHT22;2524;54.364;10.072;2023-02-28T17:57:15;8.30;89.80
5011;DHT22;2524;54.364;10.072;2023-02-28T17:59:42;8.30;89.70
5011;DHT22;2524;54.364;10.072;2023-02-28T18:02:08;8.20;89.20
5011;DHT22;2524;54.364;10.072;2023-02-28T18:04:34;8.10;88.90
5011;DHT22;2524;54.364;10.072;2023-02-28T18:07:00;8.00;89.50
5011;DHT22;2524;54.364;10.072;2023-02-28T18:09:26;7.90;90.00
5011;DHT22;2524;54.364;10.072;2023-02-28T18:11:53;7.90;90.30
5011;DHT22;2524;54.364;10.072;2023-02-28T18:14:22;7.90;90.20
5011;DHT22;2524;54.364;10.072;2023-02-28T18:16:49;7.80;90.40
5011;DHT22;2524;54.364;10.072;2023-02-28T18:19:16;7.70;90.10
5011;DHT22;2524;54.364;10.072;2023-02-28T18:21:47;7.70;90.30
5011;DHT22;2524;54.364;10.072;2023-02-28T18:24:13;7.70;90.50
5011;DHT22;2524;54.364;10.072;2023-02-28T18:26:40;7.60;90.50
5011;DHT22;2524;54.364;10.072;2023-02-28T18:29:07;7.60;90.70